Time;durP1;ratioP1;P1;durP2;ratioP2;P2;SDS_P1;SDS_P2;PMS_P1;PMS_P2;Temp;Humidity;BMP_temperature;BMP_pressure;BME280_temperature;BME280_humidity;BME280_pressure;Samples;Min_cycle;Max_cycle;Signal;HPM_P1;HPM_P2
2023/05/17 00:02:22;;;;;;;42.22;40.22;;;;;;;19.15;41.88;102398.16;5056675;28;20050;-73
2023/05/17 00:04:47;;;;;;;41.65;39.50;;;;;;;19.12;41.48;102398.69;5056677;28;20396;-73
2023/05/17 00:07:13;;;;;;;42.22;39.88;;;;;;;19.10;41.78;102415.41;5074449;28;20060;-73
2023/05/17 00:09:38;;;;;;;40.72;38.70;;;;;;;19.07;41.84;102404.13;5057013;28;20040;-73
2023/05/17 00:12:04;;;;;;;42.38;40.25;;;;;;;19.05;41.87;102400.81;5074352;28;20031;-73
2023/05/17 00:14:29;;;;;;;41.92;39.55;;;;;;;19.03;41.73;102398.34;5074431;28;20420;-73
2023/05/17 00:16:55;;;;;;;41.25;39.20;;;;;;;19.00;41.88;102404.34;5074262;28;20494;-73
2023/05/17 00:19:20;;;;;;;42.33;40.17;;;;;;;18.97;41.49;102404.84;5056270;28;20028;-73
2023/05/17 00:21:45;;;;;;;43.80;41.63;;;;;;;18.97;41.63;102396.63;5056704;28;20102;-72
2023/05/17 00:24:11;;;;;;;42.40;40.10;;;;;;;18.93;41.63;102399.06;5073723;28;20473;-73
2023/05/17 00:26:36;;;;;;;39.83;37.83;;;;;;;18.92;41.49;102397.41;5074185;28;20039;-72
2023/05/17 00:29:02;;;;;;;41.22;39.25;;;;;;;18.90;41.88;102394.13;5074278;28;20025;-73
2023/05/17 00:31:27;;;;;;;40.22;38.22;;;;;;;18.89;41.51;102397.09;5073855;28;20044;-73
2023/05/17 00:33:53;;;;;;;40.10;38.10;;;;;;;18.86;42.02;102398.44;5074758;28;20037;-73
2023/05/17 00:36:18;;;;;;;41.38;39.25;;;;;;;18.84;41.97;102389.66;5073798;28;20029;-73
2023/05/17 00:38:44;;;;;;;40.13;38.17;;;;;;;18.82;41.96;102391.81;5073575;28;20029;-73
2023/05/17 00:41:10;;;;;;;39.90;37.72;;;;;;;18.80;41.54;102394.84;5073684;28;20072;-73
2023/05/17 00:43:36;;;;;;;40.95;38.85;;;;;;;18.78;42.12;102391.53;5056312;28;20032;-73
2023/05/17 00:46:01;;;;;;;40.78;38.85;;;;;;;18.76;42.00;102393.69;5074097;28;20082;-73
2023/05/17 00:48:28;;;;;;;42.47;40.08;;;;;;;18.75;41.69;102382.97;5073667;28;20021;-73
2023/05/17 00:50:55;;;;;;;39.50;37.40;;;;;;;18.72;41.79;102388.94;5073728;28;20040;-73
2023/05/17 00:53:21;;;;;;;41.58;39.28;;;;;;;18.71;41.94;102387.31;5073326;28;20493;-73
2023/05/17 00:55:47;;;;;;;40.50;38.17;;;;;;;18.69;41.97;102386.72;5073994;28;20487;-73
2023/05/17 00:58:12;;;;;;;41.88;39.75;;;;;;;18.67;41.85;102391.63;5055602;28;20040;-73
2023/05/17 01:00:38;;;;;;;40.30;38.20;;;;;;;18.65;42.07;102394.66;5073570;28;20036;-72
2023/05/17 01:03:04;;;;;;;39.72;37.55;;;;;;;18.63;42.12;102402.28;5074171;28;20043;-73
2023/05/17 01:05:30;;;;;;;40.25;38.00;;;;;;;18.61;42.10;102401.69;5055530;28;20056;-73
2023/05/17 01:07:55;;;;;;;39.70;37.47;;;;;;;18.59;42.07;102396.47;5074026;28;20131;-73
2023/05/17 01:10:30;;;;;;;40.90;38.80;;;;;;;18.58;42.14;102388.53;5073395;28;20028;-72
2023/05/17 01:13:14;;;;;;;39.78;37.60;;;;;;;18.54;41.82;102388.19;5056272;28;20398;-74
2023/05/17 01:15:44;;;;;;;38.88;36.95;;;;;;;18.50;42.12;102389.81;5074172;28;20115;-74
2023/05/17 01:18:15;;;;;;;38.92;36.75;;;;;;;18.48;42.17;102383.78;5073880;28;20025;-74
2023/05/17 01:20:43;;;;;;;38.97;37.08;;;;;;;18.46;41.88;102390.56;5055785;28;20028;-73
2023/05/17 01:23:17;;;;;;;39.50;37.50;;;;;;;18.45;42.13;102389.75;5055291;28;20554;-73
2023/05/17 01:26:33;;;;;;;38.28;36.33;;;;;;;18.42;41.81;102395.75;5055511;28;20064;-73
2023/05/17 01:28:59;;;;;;;38.47;36.47;;;;;;;18.36;42.17;102410.44;5073252;28;20468;-73
2023/05/17 01:31:25;;;;;;;39.22;37.22;;;;;;;18.34;42.01;102407.13;5073246;28;20048;-73
2023/05/17 01:33:51;;;;;;;39.17;36.88;;;;;;;18.34;41.97;102397.03;5073247;28;20354;-73
2023/05/17 01:36:16;;;;;;;39.78;37.40;;;;;;;18.33;42.11;102400.00;5073148;28;20028;-73
2023/05/17 01:38:41;;;;;;;40.38;38.10;;;;;;;18.32;42.28;102398.31;5058295;28;20372;-73
2023/05/17 01:41:15;;;;;;;39.85;37.78;;;;;;;18.30;42.18;102390.41;5077430;28;20119;-73
2023/05/17 01:43:56;;;;;;;38.75;36.80;;;;;;;18.29;41.94;102390.63;5077543;28;20028;-73
2023/05/17 01:46:40;;;;;;;39.28;37.28;;;;;;;18.26;41.91;102385.69;5077121;28;20037;-73
2023/05/17 01:49:20;;;;;;;38.83;36.75;;;;;;;18.21;42.01;102380.97;5061032;28;20032;-72
2023/05/17 01:52:16;;;;;;;39.78;37.22;;;;;;;18.20;42.18;102390.28;5077426;28;20033;-72
2023/05/17 01:55:05;;;;;;;40.50;38.15;;;;;;;18.16;42.34;102395.41;5077051;28;20024;-73
2023/05/17 01:57:34;;;;;;;39.10;37.10;;;;;;;18.15;42.10;102391.03;5076612;28;20557;-73
2023/05/17 02:00:05;;;;;;;38.70;36.60;;;;;;;18.12;42.28;102380.59;5077367;28;20074;-73
2023/05/17 02:02:31;;;;;;;40.17;37.72;;;;;;;18.12;42.35;102377.03;5077091;28;20032;-72
2023/05/17 02:04:57;;;;;;;39.03;36.92;;;;;;;18.11;42.34;102375.38;5059037;28;20081;-72
2023/05/17 02:07:22;;;;;;;38.80;36.70;;;;;;;18.08;42.02;102370.41;5076951;28;20476;-72
2023/05/17 02:09:48;;;;;;;39.22;36.92;;;;;;;18.07;42.11;102382.44;5059059;28;20032;-73
2023/05/17 02:12:14;;;;;;;37.40;35.42;;;;;;;18.06;42.18;102384.34;5058772;28;20033;-72
2023/05/17 02:14:39;;;;;;;38.13;35.97;;;;;;;18.03;42.34;102387.56;5057701;28;20091;-72
2023/05/17 02:17:04;;;;;;;38.53;36.17;;;;;;;18.02;42.40;102385.94;5075633;28;20058;-73
2023/05/17 02:19:31;;;;;;;38.70;36.60;;;;;;;18.00;42.15;102393.56;5075214;28;20031;-71
2023/05/17 02:21:56;;;;;;;37.78;35.58;;;;;;;17.99;42.18;102388.31;5075218;28;20487;-72
2023/05/17 02:24:22;;;;;;;39.95;37.75;;;;;;;17.98;42.14;102394.88;5075111;28;20028;-71
2023/05/17 02:26:47;;;;;;;38.22;36.20;;;;;;;17.96;42.55;102384.19;5075193;28;20368;-72
2023/05/17 02:29:13;;;;;;;36.78;34.67;;;;;;;17.94;42.43;102389.06;5075143;28;20052;-72
2023/05/17 02:31:38;;;;;;;37.97;35.92;;;;;;;17.93;42.53;102390.16;5075053;28;20055;-72
2023/05/17 02:34:04;;;;;;;38.22;36.17;;;;;;;17.91;42.29;102389.59;5057163;28;20078;-72
2023/05/17 02:36:30;;;;;;;38.67;36.58;;;;;;;17.89;42.23;102403.53;5075026;28;20045;-72
2023/05/17 02:38:55;;;;;;;37.30;35.50;;;;;;;17.88;42.16;102409.25;5075393;28;20456;-72
2023/05/17 02:41:20;;;;;;;38.90;36.33;;;;;;;17.86;42.38;102404.00;5075284;28;20033;-72
2023/05/17 02:43:46;;;;;;;37.97;35.75;;;;;;;17.84;42.16;102403.47;5075222;28;20077;-72
2023/05/17 02:46:11;;;;;;;37.90;35.90;;;;;;;17.83;42.25;102407.25;5075250;28;20120;-72
2023/05/17 02:48:37;;;;;;;36.58;34.60;;;;;;;17.81;42.30;102403.94;5074468;28;20063;-72
2023/05/17 02:51:02;;;;;;;36.75;34.22;;;;;;;17.80;42.14;102412.41;5074894;28;20078;-72
2023/05/17 02:53:28;;;;;;;37.67;35.63;;;;;;;17.77;42.40;102408.22;5074989;28;20416;-73
2023/05/17 02:55:56;;;;;;;37.30;35.33;;;;;;;17.76;42.64;102411.19;5075050;28;20060;-72
2023/05/17 02:58:23;;;;;;;38.75;36.42;;;;;;;17.74;42.45;102411.47;5074557;28;20040;-72
2023/05/17 03:00:48;;;;;;;36.33;34.40;;;;;;;17.72;42.52;102411.72;5075427;28;20039;-72
2023/05/17 03:03:13;;;;;;;37.85;35.95;;;;;;;17.70;42.61;102408.41;5056390;28;20064;-72
2023/05/17 03:05:39;;;;;;;37.42;35.38;;;;;;;17.69;42.35;102409.50;5056686;28;20055;-73
2023/05/17 03:08:04;;;;;;;37.30;35.20;;;;;;;17.66;42.40;102415.44;5056885;28;20115;-73
2023/05/17 03:10:30;;;;;;;39.50;37.20;;;;;;;17.66;42.68;102412.69;5056538;28;20389;-72
2023/05/17 03:12:55;;;;;;;37.28;35.33;;;;;;;17.64;42.62;102420.34;5056641;28;20029;-72
2023/05/17 03:15:21;;;;;;;37.70;35.42;;;;;;;17.62;42.42;102413.47;5015952;28;1193447;-72
2023/05/17 03:17:46;;;;;;;37.17;34.97;;;;;;;17.61;42.29;102418.09;5075806;28;20040;-72
2023/05/17 03:20:11;;;;;;;39.15;36.80;;;;;;;17.60;42.64;102415.63;5057903;28;20040;-72
2023/05/17 03:22:37;;;;;;;38.25;36.03;;;;;;;17.59;42.22;102419.41;5075547;28;20108;-72
2023/05/17 03:25:04;;;;;;;34.75;32.90;;;;;;;17.57;42.35;102424.31;5075833;28;20048;-72
2023/05/17 03:27:29;;;;;;;38.95;36.63;;;;;;;17.55;42.65;102421.00;5074930;28;20377;-72
2023/05/17 03:29:55;;;;;;;36.85;35.05;;;;;;;17.53;42.76;102429.44;5075131;28;20101;-72
2023/05/17 03:32:20;;;;;;;36.97;34.90;;;;;;;17.52;42.80;102427.78;5075207;28;20028;-72
2023/05/17 03:34:45;;;;;;;35.47;33.50;;;;;;;17.49;42.51;102431.84;5075022;28;20032;-72
2023/05/17 03:37:11;;;;;;;36.08;33.97;;;;;;;17.48;42.50;102438.38;5057416;28;20119;-73
2023/05/17 03:39:36;;;;;;;36.88;34.88;;;;;;;17.47;42.31;102436.72;5057750;28;20055;-72
2023/05/17 03:42:02;;;;;;;36.67;34.67;;;;;;;17.46;42.42;102436.97;5075099;28;20480;-73
2023/05/17 03:44:27;;;;;;;36.15;34.25;;;;;;;17.45;42.77;102436.13;5056869;28;20032;-72
2023/05/17 03:46:53;;;;;;;36.20;34.30;;;;;;;17.44;42.57;102447.34;5075090;28;20032;-72
2023/05/17 03:49:19;;;;;;;36.53;34.58;;;;;;;17.43;42.77;102451.13;5074800;28;20066;-72
2023/05/17 03:51:45;;;;;;;36.13;34.22;;;;;;;17.42;42.43;102449.47;5057005;28;20033;-73
2023/05/17 03:54:10;;;;;;;35.85;33.95;;;;;;;17.40;42.82;102451.63;5074496;28;20032;-73
2023/05/17 03:56:35;;;;;;;37.63;35.42;;;;;;;17.39;42.45;102448.06;5074403;28;20105;-73
2023/05/17 03:59:01;;;;;;;36.15;34.25;;;;;;;17.38;42.78;102453.75;5074890;28;20024;-73
2023/05/17 04:01:26;;;;;;;37.88;35.70;;;;;;;17.37;42.70;102455.69;5073712;28;20078;-73
2023/05/17 04:03:52;;;;;;;36.17;33.97;;;;;;;17.36;42.53;102453.19;5075090;28;20028;-72
2023/05/17 04:06:17;;;;;;;37.83;35.67;;;;;;;17.35;42.87;102448.81;5056612;28;20037;-73
2023/05/17 04:08:43;;;;;;;36.72;34.50;;;;;;;17.34;42.89;102449.84;5074330;28;20028;-72
2023/05/17 04:11:14;;;;;;;36.45;34.50;;;;;;;17.33;42.92;102450.94;5074418;28;20028;-73
2023/05/17 04:13:40;;;;;;;37.15;34.95;;;;;;;17.30;42.74;102458.56;5074384;28;20132;-72
2023/05/17 04:16:09;;;;;;;37.38;34.92;;;;;;;17.29;42.99;102456.09;5074392;28;20127;-73
2023/05/17 04:18:36;;;;;;;35.15;33.25;;;;;;;17.28;42.70;102466.16;5074196;28;20036;-72
2023/05/17 04:21:02;;;;;;;35.20;33.25;;;;;;;17.27;42.95;102463.69;5074178;28;20029;-72
2023/05/17 04:23:27;;;;;;;35.28;33.17;;;;;;;17.26;43.07;102467.47;5074014;28;20093;-72
2023/05/17 04:25:53;;;;;;;35.45;33.65;;;;;;;17.25;42.53;102465.84;5074638;28;20028;-72
2023/05/17 04:28:19;;;;;;;35.92;33.90;;;;;;;17.23;42.98;102476.16;5074107;28;20383;-72
2023/05/17 04:30:46;;;;;;;36.58;34.33;;;;;;;17.22;42.71;102478.06;5074222;28;20036;-72
2023/05/17 04:33:12;;;;;;;35.45;33.45;;;;;;;17.21;43.12;102468.25;5074249;28;20090;-72
2023/05/17 04:35:41;;;;;;;38.40;36.10;;;;;;;17.19;42.77;102464.91;5040299;28;20032;-72
2023/05/17 04:38:08;;;;;;;34.63;32.63;;;;;;;17.18;42.81;102487.81;5073638;28;20036;-72
2023/05/17 04:40:34;;;;;;;35.38;33.33;;;;;;;17.18;42.95;102481.53;5055783;28;20036;-72
2023/05/17 04:42:59;;;;;;;36.65;34.33;;;;;;;17.17;43.04;102488.91;5056132;28;20115;-72
2023/05/17 04:45:25;;;;;;;36.00;33.83;;;;;;;17.15;43.01;102490.22;5073835;28;20119;-71
2023/05/17 04:47:51;;;;;;;35.55;33.17;;;;;;;17.14;42.79;102494.84;5074237;28;20033;-73
2023/05/17 04:50:17;;;;;;;34.83;32.67;;;;;;;17.14;42.91;102485.84;5074030;28;20090;-72
2023/05/17 04:52:44;;;;;;;38.30;36.05;;;;;;;17.13;42.90;102504.09;5073343;28;20055;-72
2023/05/17 04:55:09;;;;;;;34.78;32.90;;;;;;;17.13;43.11;102500.56;5073411;28;20035;-74
2023/05/17 04:57:35;;;;;;;36.42;34.42;;;;;;;17.11;42.93;102500.81;5073866;28;20041;-72
2023/05/17 05:00:11;;;;;;;35.13;33.08;;;;;;;17.11;42.95;102494.50;5074175;28;20437;-73
2023/05/17 05:02:37;;;;;;;35.63;33.70;;;;;;;17.11;42.95;102497.22;5056332;28;20082;-74
2023/05/17 05:05:04;;;;;;;33.58;31.80;;;;;;;17.09;42.89;102502.97;5073557;28;20388;-73
2023/05/17 05:07:30;;;;;;;32.85;31.15;;;;;;;17.10;43.15;102512.78;5073568;28;20036;-74
2023/05/17 05:09:55;;;;;;;33.95;32.15;;;;;;;17.10;42.83;102518.25;5073361;28;20388;-75
2023/05/17 05:12:21;;;;;;;34.80;32.83;;;;;;;17.11;42.84;102514.47;5073631;28;20483;-75
2023/05/17 05:14:46;;;;;;;34.70;32.70;;;;;;;17.10;42.93;102523.72;5073641;28;20060;-74
2023/05/17 05:17:12;;;;;;;34.08;32.08;;;;;;;17.09;42.97;102520.16;5055445;28;20035;-73
2023/05/17 05:19:37;;;;;;;35.08;33.10;;;;;;;17.09;42.73;102525.63;5073310;28;20448;-73
2023/05/17 05:22:03;;;;;;;33.33;31.48;;;;;;;17.09;43.00;102531.09;5055764;28;20036;-73
2023/05/17 05:24:28;;;;;;;34.35;32.65;;;;;;;17.08;42.87;102528.59;5072911;28;20025;-73
2023/05/17 05:26:53;;;;;;;35.22;33.13;;;;;;;17.07;43.04;102532.41;5072982;28;20111;-73
2023/05/17 05:29:19;;;;;;;34.90;33.00;;;;;;;17.07;42.89;102529.66;5055665;28;20028;-73
2023/05/17 05:31:45;;;;;;;33.95;32.00;;;;;;;17.09;42.81;102541.19;5073455;28;20460;-74
2023/05/17 05:34:10;;;;;;;35.83;33.45;;;;;;;17.08;42.70;102542.22;5073183;28;20032;-74
2023/05/17 05:36:36;;;;;;;36.10;34.22;;;;;;;17.07;43.12;102543.31;5073202;28;20120;-73
2023/05/17 05:39:01;;;;;;;34.42;32.42;;;;;;;17.07;42.58;102548.78;5073466;28;20036;-73
2023/05/17 05:41:27;;;;;;;33.13;31.33;;;;;;;17.06;43.15;102550.69;5072829;28;20119;-73
2023/05/17 05:43:52;;;;;;;36.35;34.20;;;;;;;17.06;43.22;102550.69;5073128;28;20036;-73
2023/05/17 05:46:17;;;;;;;35.78;33.65;;;;;;;17.05;43.07;102554.47;5055684;28;20035;-73
2023/05/17 05:48:43;;;;;;;36.33;34.05;;;;;;;17.06;43.01;102552.59;5073054;28;20373;-73
2023/05/17 05:51:09;;;;;;;33.28;30.88;;;;;;;17.06;43.17;102558.88;5055061;28;20037;-73
2023/05/17 05:53:35;;;;;;;34.42;32.53;;;;;;;17.09;43.14;102560.28;5073510;28;20120;-72
2023/05/17 05:56:01;;;;;;;36.05;33.55;;;;;;;17.07;43.14;102560.53;5072717;28;20064;-76
2023/05/17 05:58:27;;;;;;;36.65;34.60;;;;;;;17.08;43.38;102556.75;5054782;28;20043;-78
2023/05/17 06:00:53;;;;;;;36.05;33.75;;;;;;;17.08;43.35;102561.34;5054869;28;20489;-78
2023/05/17 06:03:18;;;;;;;35.75;33.05;;;;;;;17.07;43.44;102562.44;5072709;28;20033;-78
2023/05/17 06:05:44;;;;;;;34.67;32.13;;;;;;;17.07;43.30;102570.63;5072507;28;20086;-78
2023/05/17 06:08:09;;;;;;;34.10;32.30;;;;;;;17.08;43.28;102580.47;5073279;28;20035;-79
2023/05/17 06:10:34;;;;;;;37.30;34.33;;;;;;;17.08;43.69;102581.31;5055575;28;20479;-79
2023/05/17 06:13:00;;;;;;;33.35;31.65;;;;;;;17.09;43.57;102582.13;5072812;28;20036;-78
2023/05/17 06:15:26;;;;;;;33.90;31.80;;;;;;;17.11;43.47;102580.00;5054750;28;20045;-78
2023/05/17 06:17:52;;;;;;;35.85;33.38;;;;;;;17.11;43.18;102585.47;5073085;28;20062;-76
2023/05/17 06:20:17;;;;;;;33.72;31.85;;;;;;;17.13;43.36;102587.94;5072649;28;20029;-78
2023/05/17 06:22:43;;;;;;;34.03;31.88;;;;;;;17.11;43.61;102584.59;5072681;28;20468;-78
2023/05/17 06:25:10;;;;;;;35.58;33.33;;;;;;;17.13;43.68;102593.38;5075602;28;20032;-78
2023/05/17 06:27:35;;;;;;;33.53;31.60;;;;;;;17.13;43.61;102590.66;5076408;28;20365;-77
2023/05/17 06:30:03;;;;;;;35.72;32.70;;;;;;;17.13;43.80;102593.38;5076357;28;20040;-77
2023/05/17 06:32:29;;;;;;;33.30;31.55;;;;;;;17.11;43.96;102599.13;5076632;28;20028;-76
2023/05/17 06:34:55;;;;;;;35.92;33.97;;;;;;;17.15;43.73;102603.00;5076016;28;20033;-77
2023/05/17 06:37:20;;;;;;;33.70;31.98;;;;;;;17.18;43.62;102599.78;5058570;28;20024;-77
2023/05/17 06:39:46;;;;;;;37.28;34.92;;;;;;;17.20;43.64;102602.28;5059004;28;20032;-77
2023/05/17 06:42:11;;;;;;;31.83;30.20;;;;;;;17.22;43.60;102600.16;5076212;28;20040;-77
2023/05/17 06:44:37;;;;;;;33.95;32.13;;;;;;;17.23;43.88;102596.31;5076624;28;20028;-77
2023/05/17 06:47:02;;;;;;;35.63;33.28;;;;;;;17.27;43.87;102603.81;5075650;28;20037;-76
2023/05/17 06:49:28;;;;;;;33.08;31.38;;;;;;;17.30;43.88;102603.31;5076250;28;20456;-76
2023/05/17 06:51:54;;;;;;;35.55;33.40;;;;;;;17.33;43.56;102606.63;5057837;28;20032;-76
2023/05/17 06:54:19;;;;;;;36.08;34.28;;;;;;;17.34;43.71;102608.28;5057857;28;20170;-76
2023/05/17 06:56:45;;;;;;;35.58;33.30;;;;;;;17.36;43.63;102606.13;5057936;28;20052;-81
2023/05/17 06:59:10;;;;;;;34.60;32.58;;;;;;;17.39;44.09;102608.41;5075905;28;20443;-81
2023/05/17 07:01:36;;;;;;;34.42;32.67;;;;;;;17.41;43.78;102620.75;5075812;28;20032;-81
2023/05/17 07:04:01;;;;;;;36.08;33.75;;;;;;;17.43;43.79;102618.59;5058175;28;20044;-82
2023/05/17 07:06:27;;;;;;;34.78;32.88;;;;;;;17.45;44.15;102621.91;5057922;28;20523;-81
2023/05/17 07:08:53;;;;;;;37.45;34.97;;;;;;;17.49;44.26;102622.28;5057715;28;20103;-76
2023/05/17 07:11:18;;;;;;;35.15;33.15;;;;;;;17.52;43.83;102617.13;5057590;28;20391;-74
2023/05/17 07:13:44;;;;;;;36.58;33.42;;;;;;;17.58;43.75;102618.06;5057290;28;20048;-74
2023/05/17 07:16:09;;;;;;;35.00;32.85;;;;;;;17.61;43.98;102623.03;5057963;28;20068;-74
2023/05/17 07:18:35;;;;;;;35.35;33.10;;;;;;;17.65;43.86;102623.38;5075754;28;20040;-74
2023/05/17 07:21:00;;;;;;;35.30;32.97;;;;;;;17.68;43.99;102629.19;5075517;28;20024;-75
2023/05/17 07:23:26;;;;;;;33.78;31.67;;;;;;;17.70;44.31;102631.69;5041290;28;20043;-74
2023/05/17 07:25:51;;;;;;;35.75;33.67;;;;;;;17.73;44.42;102634.75;5075235;28;20028;-74
2023/05/17 07:28:16;;;;;;;33.22;31.40;;;;;;;17.78;44.72;102641.38;5075461;28;20032;-78
2023/05/17 07:30:42;;;;;;;34.35;32.65;;;;;;;17.82;44.23;102634.41;5075134;28;20029;-75
2023/05/17 07:33:07;;;;;;;35.80;34.00;;;;;;;17.86;44.56;102628.16;5057274;28;20040;-78
2023/05/17 07:35:33;;;;;;;36.55;34.13;;;;;;;17.91;44.64;102641.09;5055991;28;20035;-74
2023/05/17 07:37:58;;;;;;;36.67;34.78;;;;;;;17.94;44.54;102635.13;5074511;28;20039;-74
2023/05/17 07:40:24;;;;;;;34.85;32.95;;;;;;;17.98;44.68;102641.78;5074777;28;20055;-74
2023/05/17 07:42:49;;;;;;;35.10;33.30;;;;;;;18.04;44.38;102643.56;5074954;28;20032;-74
2023/05/17 07:45:15;;;;;;;35.25;33.45;;;;;;;18.07;44.93;102650.44;5074693;28;20037;-73
2023/05/17 07:47:40;;;;;;;36.13;34.22;;;;;;;18.11;44.34;102649.66;5075079;28;20028;-74
2023/05/17 07:50:06;;;;;;;36.78;34.63;;;;;;;18.12;44.70;102651.34;5057440;28;20361;-73
2023/05/17 07:52:31;;;;;;;36.70;34.67;;;;;;;18.17;44.88;102656.91;5074768;28;20109;-73
2023/05/17 07:54:57;;;;;;;38.13;35.88;;;;;;;18.24;44.58;102654.00;5074526;28;20043;-73
2023/05/17 07:57:22;;;;;;;36.75;34.83;;;;;;;18.28;44.80;102648.88;5056537;28;20473;-74
2023/05/17 07:59:48;;;;;;;36.20;34.20;;;;;;;18.35;44.77;102653.09;5040517;28;20093;-74
2023/05/17 08:02:13;;;;;;;38.15;36.15;;;;;;;18.38;45.16;102652.59;5056751;28;20121;-74
2023/05/17 08:04:40;;;;;;;36.80;34.40;;;;;;;18.47;44.89;102652.16;5057130;28;20373;-73
2023/05/17 08:07:06;;;;;;;39.78;37.47;;;;;;;18.51;44.50;102651.44;5074996;28;20534;-74
2023/05/17 08:09:31;;;;;;;36.53;34.72;;;;;;;18.54;44.57;102648.19;5074104;28;20044;-73
2023/05/17 08:11:56;;;;;;;38.63;36.63;;;;;;;18.61;44.49;102656.22;5056482;28;20098;-73
2023/05/17 08:14:23;;;;;;;38.08;36.10;;;;;;;18.65;44.97;102648.34;5074447;28;20049;-73
2023/05/17 08:16:50;;;;;;;38.03;35.95;;;;;;;18.71;44.80;102650.91;5074206;28;20111;-73
2023/05/17 08:19:16;;;;;;;37.17;35.38;;;;;;;18.73;44.92;102651.50;5057259;28;20036;-74
2023/05/17 08:21:42;;;;;;;38.72;36.53;;;;;;;18.79;44.90;102652.41;5073766;28;20032;-73
2023/05/17 08:24:08;;;;;;;39.53;36.97;;;;;;;18.86;44.31;102663.22;5073924;28;20035;-73
2023/05/17 08:26:34;;;;;;;38.78;36.28;;;;;;;18.89;44.58;102655.31;5073899;28;20064;-73
2023/05/17 08:29:01;;;;;;;39.35;37.03;;;;;;;18.97;44.79;102651.31;5074277;28;20036;-73
2023/05/17 08:31:27;;;;;;;39.55;37.25;;;;;;;19.01;44.89;102661.50;5074046;28;20040;-73
2023/05/17 08:33:52;;;;;;;39.88;37.65;;;;;;;19.06;44.46;102648.97;5056249;28;20032;-74
2023/05/17 08:36:18;;;;;;;42.42;39.72;;;;;;;19.12;44.25;102651.50;5074273;28;20028;-73
2023/05/17 08:38:44;;;;;;;39.88;37.78;;;;;;;19.15;44.66;102652.91;5073946;28;20089;-74
2023/05/17 08:41:09;;;;;;;41.65;39.65;;;;;;;19.26;44.36;102659.38;5056194;28;20033;-74
2023/05/17 08:43:35;;;;;;;41.13;39.08;;;;;;;19.30;44.50;102663.25;5073839;28;20039;-74
2023/05/17 08:46:02;;;;;;;40.45;38.45;;;;;;;19.31;44.98;102665.75;5073655;28;20044;-74
2023/05/17 08:48:29;;;;;;;40.25;38.17;;;;;;;19.42;44.74;102658.47;5073605;28;20460;-74
2023/05/17 08:50:56;;;;;;;40.17;37.95;;;;;;;19.50;44.32;102652.53;5073666;28;20138;-75
2023/05/17 08:53:23;;;;;;;41.05;38.78;;;;;;;19.58;44.50;102654.84;5073596;28;20475;-74
2023/05/17 08:55:49;;;;;;;40.72;38.75;;;;;;;19.63;44.62;102659.53;5074248;28;20033;-74
2023/05/17 08:58:18;;;;;;;42.67;40.25;;;;;;;19.67;44.30;102667.00;5073270;28;20426;-75
2023/05/17 09:00:45;;;;;;;40.70;38.78;;;;;;;19.76;44.08;102659.16;5073555;28;20028;-75
2023/05/17 09:03:16;;;;;;;42.92;40.60;;;;;;;19.79;44.19;102661.38;5073892;28;20083;-75
2023/05/17 09:05:42;;;;;;;41.97;39.95;;;;;;;19.88;43.95;102667.22;5055961;28;20029;-74
2023/05/17 09:08:12;;;;;;;44.85;42.58;;;;;;;19.93;44.13;102669.19;5039121;28;20082;-75
2023/05/17 09:10:38;;;;;;;46.53;43.85;;;;;;;19.96;44.34;102663.19;5055883;28;20064;-75
2023/05/17 09:13:03;;;;;;;43.67;41.45;;;;;;;20.06;44.22;102660.56;5072729;28;20060;-75
2023/05/17 09:15:33;;;;;;;44.30;42.10;;;;;;;20.14;44.60;102659.25;5073139;28;20082;-75
2023/05/17 09:17:59;;;;;;;43.83;41.60;;;;;;;20.23;44.32;102655.75;5073205;28;20075;-75
2023/05/17 09:20:35;;;;;;;46.00;43.60;;;;;;;20.30;43.97;102653.63;5054949;28;20033;-75
2023/05/17 09:23:05;;;;;;;44.45;42.15;;;;;;;20.34;44.51;102656.69;5056333;28;20066;-74
2023/05/17 09:25:31;;;;;;;44.58;41.95;;;;;;;20.42;44.25;102658.94;5073007;28;20033;-74
2023/05/17 09:28:01;;;;;;;44.92;42.60;;;;;;;20.50;44.57;102663.13;5055145;28;20042;-75
2023/05/17 09:30:32;;;;;;;43.90;41.83;;;;;;;20.53;44.62;102666.16;5054948;28;20101;-75
2023/05/17 09:33:03;;;;;;;46.92;44.60;;;;;;;20.62;44.56;102665.72;5072938;28;20468;-75
2023/05/17 09:35:30;;;;;;;46.92;44.65;;;;;;;20.71;44.32;102651.25;5055484;28;20028;-75
2023/05/17 09:38:11;;;;;;;46.55;44.15;;;;;;;20.82;43.84;102654.03;5073041;28;20035;-74
2023/05/17 09:40:41;;;;;;;46.25;43.75;;;;;;;20.87;44.32;102654.06;5073292;28;20031;-75
2023/05/17 09:43:07;;;;;;;49.10;46.65;;;;;;;20.94;44.42;102668.38;5072933;28;20032;-76
2023/05/17 09:45:33;;;;;;;48.80;46.25;;;;;;;21.03;44.46;102672.28;5072784;28;20036;-76
2023/05/17 09:48:18;;;;;;;52.13;49.33;;;;;;;21.12;44.54;102659.69;5055664;28;20028;-76
2023/05/17 09:50:48;;;;;;;49.00;45.97;;;;;;;21.18;43.98;102664.13;5073003;28;20123;-75
2023/05/17 09:53:27;;;;;;;50.55;48.05;;;;;;;21.21;44.76;102664.69;5072638;28;20028;-75
2023/05/17 09:55:56;;;;;;;50.08;47.58;;;;;;;21.26;44.14;102657.28;5054957;28;20036;-75
2023/05/17 09:58:22;;;;;;;50.25;47.72;;;;;;;21.35;44.13;102655.66;5055031;28;20060;-76
2023/05/17 10:00:52;;;;;;;52.20;49.70;;;;;;;21.45;44.13;102657.66;5058528;28;20044;-75
2023/05/17 10:03:18;;;;;;;51.88;49.28;;;;;;;21.50;43.63;102660.44;5076781;28;20036;-75
2023/05/17 10:05:45;;;;;;;53.35;50.38;;;;;;;21.59;43.68;102666.22;5076666;28;20365;-75
2023/05/17 10:08:13;;;;;;;52.63;49.92;;;;;;;21.68;43.78;102661.03;5058767;28;20037;-76
2023/05/17 10:10:40;;;;;;;50.90;48.55;;;;;;;21.76;43.41;102653.06;5076789;28;20033;-76
2023/05/17 10:13:09;;;;;;;51.78;49.28;;;;;;;21.81;43.65;102657.75;5076160;28;20064;-76
2023/05/17 10:15:35;;;;;;;52.95;50.25;;;;;;;21.90;43.62;102653.38;5076867;28;20053;-75
2023/05/17 10:18:02;;;;;;;53.75;50.65;;;;;;;21.97;43.34;102658.59;5058601;28;20060;-76
2023/05/17 10:20:28;;;;;;;54.72;51.78;;;;;;;21.99;43.77;102648.16;5076873;28;20460;-74
2023/05/17 10:22:55;;;;;;;53.00;50.50;;;;;;;22.06;43.39;102662.47;5058676;28;20028;-73
2023/05/17 10:25:21;;;;;;;53.00;50.50;;;;;;;22.16;43.36;102656.16;5076102;28;20111;-74
2023/05/17 10:27:49;;;;;;;54.35;51.75;;;;;;;22.21;43.29;102668.00;5077253;28;20425;-74
2023/05/17 10:30:17;;;;;;;56.93;54.03;;;;;;;22.27;43.23;102660.56;5077013;28;20101;-75
2023/05/17 10:32:44;;;;;;;53.03;50.38;;;;;;;22.32;43.16;102660.56;5076320;28;20356;-73
2023/05/17 10:35:14;;;;;;;55.30;52.70;;;;;;;22.38;43.32;102664.19;5058535;28;20159;-75
2023/05/17 10:37:40;;;;;;;56.55;53.80;;;;;;;22.44;43.35;102652.03;5076509;28;20424;-74
2023/05/17 10:40:11;;;;;;;57.30;54.33;;;;;;;22.50;43.38;102647.34;5058279;28;20115;-75
2023/05/17 10:42:41;;;;;;;57.20;54.17;;;;;;;22.55;42.85;102647.34;5059344;28;20111;-74
2023/05/17 10:45:08;;;;;;;56.97;54.28;;;;;;;22.60;42.91;102650.09;5075661;28;20471;-75
2023/05/17 10:47:33;;;;;;;58.72;55.53;;;;;;;22.66;43.01;102654.50;5076117;28;20045;-75
2023/05/17 10:49:59;;;;;;;57.80;54.88;;;;;;;22.71;43.28;102642.66;5058057;28;20046;-74
2023/05/17 10:52:26;;;;;;;58.80;55.80;;;;;;;22.76;43.12;102643.47;5075913;28;20082;-75
2023/05/17 10:54:52;;;;;;;58.05;54.85;;;;;;;22.84;42.81;102644.81;5041517;28;20068;-75
2023/05/17 10:57:20;;;;;;;58.95;55.92;;;;;;;22.89;42.61;102642.88;5075548;28;20419;-73
2023/05/17 10:59:59;;;;;;;58.78;55.90;;;;;;;22.96;43.21;102639.00;5075906;28;20024;-74
2023/05/17 11:02:27;;;;;;;60.05;57.05;;;;;;;23.01;42.29;102630.75;5076323;28;20082;-74
2023/05/17 11:04:54;;;;;;;60.13;57.20;;;;;;;23.06;42.46;102630.72;5058641;28;20056;-74
2023/05/17 11:07:23;;;;;;;62.03;58.93;;;;;;;23.13;42.88;102633.16;5057680;28;20032;-74
2023/05/17 11:10:16;;;;;;;61.55;58.75;;;;;;;23.17;42.45;102642.53;5075994;28;20032;-75